createdAt,value
2018-07-27T00:01:26.965Z,99664.77
2018-07-27T00:06:10.686Z,99672.19
2018-07-27T00:10:55.329Z,99679.03
2018-07-27T00:15:39.026Z,99663.86
2018-07-27T00:20:23.683Z,99671.16
2018-07-27T00:25:07.469Z,99670.70
2018-07-27T00:29:52.246Z,99675.32
2018-07-27T00:34:35.810Z,99670.58
2018-07-27T00:39:19.402Z,99668.77
2018-07-27T00:44:02.860Z,99668.22
2018-07-27T00:48:47.656Z,99675.20
2018-07-27T00:53:31.261Z,99673.30
2018-07-27T00:58:14.974Z,99687.41
2018-07-27T01:02:58.565Z,99681.31
2018-07-27T01:07:42.241Z,99675.69
2018-07-27T01:12:25.813Z,99684.39
2018-07-27T01:17:12.445Z,99674.13
2018-07-27T01:21:55.757Z,99672.38
2018-07-27T01:26:43.366Z,99675.05
2018-07-27T01:31:26.908Z,99673.09
2018-07-27T01:36:10.517Z,99674.69
2018-07-27T01:40:54.110Z,99679.71
2018-07-27T01:45:37.713Z,99678.03
2018-07-27T01:50:22.532Z,99675.72
2018-07-27T01:55:06.018Z,99673.91
2018-07-27T01:59:50.573Z,99674.54
2018-07-27T02:04:34.088Z,99674.95
2018-07-27T02:09:21.546Z,99675.42
2018-07-27T02:14:05.079Z,99672.59
2018-07-27T02:18:48.766Z,99663.73
2018-07-27T02:23:32.358Z,99672.52
2018-07-27T02:28:19.593Z,99662.35
2018-07-27T02:33:03.204Z,99662.11
2018-07-27T02:37:47.985Z,99666.14
2018-07-27T02:42:31.443Z,99664.93
2018-07-27T02:47:15.021Z,99657.92
2018-07-27T02:51:58.566Z,99659.58
2018-07-27T02:56:42.391Z,99650.05
2018-07-27T03:01:25.962Z,99652.09
2018-07-27T03:06:09.571Z,99650.55
2018-07-27T03:10:53.254Z,99650.27
2018-07-27T03:15:36.991Z,99657.67
2018-07-27T03:20:20.909Z,99661.34
2018-07-27T03:25:04.566Z,99669.69
2018-07-27T03:29:48.405Z,99665.77
2018-07-27T03:34:31.844Z,99670.91
2018-07-27T03:39:15.550Z,99677.26
2018-07-27T03:43:59.054Z,99682.89
2018-07-27T03:48:43.454Z,99685.23
2018-07-27T03:53:27.007Z,99681.70
2018-07-27T03:58:10.811Z,99684.60
2018-07-27T04:02:54.404Z,99687.06
2018-07-27T04:07:41.149Z,99689.23
2018-07-27T04:12:24.582Z,99697.94
2018-07-27T04:17:11.751Z,99700.52
2018-07-27T04:21:55.390Z,99701.81
2018-07-27T04:26:39.156Z,99707.94
2018-07-27T04:31:22.810Z,99700.81
2018-07-27T04:36:06.488Z,99710.23
2018-07-27T04:40:50.090Z,99706.85
2018-07-27T04:45:33.702Z,99704.59
2018-07-27T04:50:17.664Z,99702.63
2018-07-27T04:55:02.247Z,99707.20
2018-07-27T04:59:48.944Z,99710.20
2018-07-27T05:04:32.515Z,99714.75
2018-07-27T05:09:22.411Z,99709.68
2018-07-27T05:14:05.965Z,99702.91
2018-07-27T05:18:49.936Z,99698.91
2018-07-27T05:23:33.512Z,99692.98
2018-07-27T05:28:18.084Z,99696.37
2018-07-27T05:33:01.727Z,99692.01
2018-07-27T05:37:46.481Z,99693.88
2018-07-27T05:42:30.138Z,99694.17
2018-07-27T05:47:13.820Z,99702.98
2018-07-27T05:51:57.403Z,99700.88
2018-07-27T05:56:41.320Z,99696.35
2018-07-27T06:01:24.934Z,99697.94
2018-07-27T06:06:08.713Z,99701.04
2018-07-27T06:10:52.263Z,99697.84
2018-07-27T06:15:35.815Z,99698.41
2018-07-27T06:20:19.412Z,99693.16
2018-07-27T06:25:02.989Z,99699.00
2018-07-27T06:29:47.853Z,99695.87
2018-07-27T06:34:32.030Z,99698.48
2018-07-27T06:39:16.684Z,99700.53
2018-07-27T06:44:00.189Z,99695.87
2018-07-27T06:48:43.832Z,99705.52
2018-07-27T06:53:27.698Z,99707.41
2018-07-27T06:58:11.289Z,99707.09
2018-07-27T07:02:54.857Z,99711.02
2018-07-27T07:07:39.416Z,99710.32
2018-07-27T07:12:22.965Z,99710.72
2018-07-27T07:17:06.623Z,99719.27
2018-07-27T07:21:50.169Z,99724.33
2018-07-27T07:26:34.913Z,99726.71
2018-07-27T07:31:19.367Z,99727.08
2018-07-27T07:36:03.042Z,99723.30
2018-07-27T07:40:46.545Z,99727.14
2018-07-27T07:45:30.589Z,99731.10
2018-07-27T07:50:14.257Z,99729.40
2018-07-27T07:54:57.970Z,99728.67
2018-07-27T07:59:41.532Z,99722.95
2018-07-27T08:04:25.227Z,99731.04
2018-07-27T08:09:10.348Z,99725.36
2018-07-27T08:13:53.954Z,99729.63
2018-07-27T08:18:37.656Z,99722.00
2018-07-27T08:23:21.157Z,99722.67
2018-07-27T08:28:19.041Z,99714.50
2018-07-27T08:33:02.676Z,99709.80
2018-07-27T08:37:49.680Z,99708.12
2018-07-27T08:42:33.280Z,99707.42
2018-07-27T08:47:20.424Z,99706.39
2018-07-27T08:52:03.962Z,99698.67
2018-07-27T08:56:51.644Z,99698.14
2018-07-27T09:01:35.304Z,99687.16
2018-07-27T09:06:19.171Z,99686.02
2018-07-27T09:11:02.810Z,99681.13
2018-07-27T09:15:49.763Z,99670.80
2018-07-27T09:20:33.426Z,99667.68
2018-07-27T09:25:21.129Z,99660.24
2018-07-27T09:30:06.063Z,99658.54
2018-07-27T09:34:49.752Z,99653.72
2018-07-27T09:39:33.532Z,99661.51
2018-07-27T09:44:17.800Z,99653.03
2018-07-27T09:49:04.630Z,99656.04
2018-07-27T09:53:50.463Z,99661.84
2018-07-27T09:58:35.624Z,99665.25
2018-07-27T10:03:19.941Z,99659.55
2018-07-27T10:08:03.707Z,99665.07
2018-07-27T10:12:48.160Z,99652.05
2018-07-27T10:17:32.073Z,99653.03
2018-07-27T10:22:15.542Z,99656.72
2018-07-27T10:26:59.395Z,99664.13
2018-07-27T10:31:42.923Z,99668.31
2018-07-27T10:36:27.740Z,99662.16
2018-07-27T10:41:11.375Z,99659.88
2018-07-27T10:45:58.567Z,99656.33
2018-07-27T10:50:42.651Z,99655.73
2018-07-27T10:55:27.479Z,99670.31
2018-07-27T11:00:18.727Z,99663.59
2018-07-27T11:05:06.120Z,99662.41
2018-07-27T11:09:50.017Z,99660.44
2018-07-27T11:14:33.499Z,99665.66
2018-07-27T11:19:17.220Z,99665.39
2018-07-27T11:24:00.761Z,99666.30
2018-07-27T11:28:44.910Z,99659.72
2018-07-27T11:33:30.080Z,99653.33
2018-07-27T11:38:13.900Z,99653.57
2018-07-27T11:42:57.584Z,99648.43
2018-07-27T11:47:41.513Z,99653.42
2018-07-27T11:52:25.244Z,99656.70
2018-07-27T11:57:08.983Z,99655.15
2018-07-27T12:01:52.898Z,99649.50
2018-07-27T12:06:37.832Z,99662.54
2018-07-27T12:11:21.884Z,99657.89
2018-07-27T12:16:07.616Z,99659.09
2018-07-27T12:20:51.814Z,99660.03
2018-07-27T12:25:35.501Z,99661.27
2018-07-27T12:30:19.183Z,99672.99
2018-07-27T12:35:03.820Z,99666.36
2018-07-27T12:39:47.455Z,99664.37
2018-07-27T12:44:30.947Z,99667.85
2018-07-27T12:49:14.595Z,99682.72
2018-07-27T12:53:58.277Z,99692.33
2018-07-27T12:58:42.814Z,99690.81
2018-07-27T13:03:26.401Z,99674.31
2018-07-27T13:08:11.174Z,99683.56
2018-07-27T13:12:54.727Z,99686.55
2018-07-27T13:17:41.763Z,99692.66
2018-07-27T13:22:26.219Z,99699.38
2018-07-27T13:27:13.119Z,99700.78
2018-07-27T13:31:58.277Z,99711.91
2018-07-27T13:36:43.054Z,99714.53
2018-07-27T13:41:26.725Z,99705.14
2018-07-27T13:46:10.635Z,99696.77
2018-07-27T13:50:54.405Z,99688.33
2018-07-27T13:55:38.169Z,99671.66
2018-07-27T14:00:21.785Z,99650.42
2018-07-27T14:05:07.025Z,99643.38
2018-07-27T14:09:50.715Z,99630.78
2018-07-27T14:14:34.512Z,99618.16
2018-07-27T14:19:18.874Z,99609.44
2018-07-27T14:24:02.417Z,99613.63
2018-07-27T14:28:46.201Z,99613.17
2018-07-27T14:33:29.780Z,99619.06
2018-07-27T14:38:13.635Z,99621.22
2018-07-27T14:42:57.234Z,99631.78
2018-07-27T14:47:41.168Z,99631.68
2018-07-27T14:52:24.966Z,99626.12
2018-07-27T14:57:09.370Z,99622.19
2018-07-27T15:01:52.892Z,99618.45
2018-07-27T15:06:37.512Z,99617.66
2018-07-27T15:11:21.052Z,99629.29
2018-07-27T15:16:07.597Z,99644.58
2018-07-27T15:20:50.920Z,99652.77
2018-07-27T15:25:34.662Z,99652.11
2018-07-27T15:30:18.197Z,99653.02
2018-07-27T15:35:05.605Z,99653.11
2018-07-27T15:39:49.274Z,99661.62
2018-07-27T15:44:33.114Z,99653.52
2018-07-27T15:49:16.696Z,99657.55
2018-07-27T15:54:00.366Z,99653.60
2018-07-27T15:58:43.791Z,99653.02
2018-07-27T16:03:27.143Z,99651.83
2018-07-27T16:08:10.958Z,99653.51
2018-07-27T16:12:54.555Z,99653.44
2018-07-27T16:17:41.266Z,99658.63
2018-07-27T16:22:24.767Z,99655.64
2018-07-27T16:27:08.553Z,99649.69
2018-07-27T16:31:52.176Z,99644.11
2018-07-27T16:36:43.595Z,99641.03
2018-07-27T16:41:27.349Z,99628.74
2018-07-27T16:46:11.701Z,99640.09
2018-07-27T16:50:55.560Z,99633.29
2018-07-27T16:55:39.582Z,99625.63
2018-07-27T17:00:25.307Z,99617.58
2018-07-27T17:05:10.369Z,99618.69
2018-07-27T17:09:53.868Z,99617.49
2018-07-27T17:14:38.656Z,99612.61
2018-07-27T17:19:22.199Z,99604.41
2018-07-27T17:24:11.049Z,99601.18
2018-07-27T17:28:54.614Z,99601.73
2018-07-27T17:33:38.263Z,99587.11
2018-07-27T17:38:21.815Z,99586.38
2018-07-27T17:43:05.428Z,99596.06
2018-07-27T17:47:49.104Z,99599.05
2018-07-27T17:52:32.848Z,99602.56
2018-07-27T17:57:19.745Z,99609.44
2018-07-27T18:02:06.475Z,99609.05
2018-07-27T18:06:54.218Z,99616.54
2018-07-27T18:11:39.510Z,99620.13
2018-07-27T18:16:23.276Z,99641.36
2018-07-27T18:21:07.128Z,99651.45
2018-07-27T18:25:50.811Z,99662.36
2018-07-27T18:30:35.192Z,99663.05
2018-07-27T18:35:18.872Z,99666.96
2018-07-27T18:40:03.265Z,99673.33
2018-07-27T18:44:51.344Z,99672.33
2018-07-27T18:49:34.949Z,99685.70
2018-07-27T18:54:22.619Z,99682.16
2018-07-27T18:59:06.337Z,99677.66
2018-07-27T19:03:50.132Z,99686.86
2018-07-27T19:08:33.785Z,99680.94
2018-07-27T19:13:17.228Z,99686.73
2018-07-27T19:18:00.745Z,99691.41
2018-07-27T19:22:44.419Z,99694.97
2018-07-27T19:27:27.973Z,99698.11
2018-07-27T19:32:11.779Z,99687.12
2018-07-27T19:36:56.572Z,99682.84
2018-07-27T19:41:40.676Z,99672.30
2018-07-27T19:46:24.429Z,99673.76
2018-07-27T19:51:08.914Z,99679.67
2018-07-27T19:55:55.600Z,99682.39
2018-07-27T20:00:39.384Z,99692.34
2018-07-27T20:05:23.075Z,99692.20
2018-07-27T20:10:07.179Z,99697.50
2018-07-27T20:14:50.968Z,99696.72
2018-07-27T20:19:34.603Z,99694.67
2018-07-27T20:24:18.431Z,99684.80
2018-07-27T20:29:02.028Z,99679.18
2018-07-27T20:33:46.230Z,99678.93
2018-07-27T20:38:30.420Z,99673.82
2018-07-27T20:43:14.116Z,99679.46
2018-07-27T20:47:58.910Z,99681.75
2018-07-27T20:52:42.599Z,99671.46
2018-07-27T20:57:29.652Z,99669.64
2018-07-27T21:02:13.306Z,99666.25
2018-07-27T21:06:56.920Z,99670.55
2018-07-27T21:11:41.528Z,99664.84
2018-07-27T21:16:26.389Z,99659.62
2018-07-27T21:21:10.030Z,99659.98
2018-07-27T21:25:57.447Z,99660.91
2018-07-27T21:30:41.093Z,99666.35
2018-07-27T21:35:25.612Z,99659.44
2018-07-27T21:40:09.126Z,99651.97
2018-07-27T21:44:52.869Z,99647.31
2018-07-27T21:49:36.509Z,99649.08
2018-07-27T21:54:20.165Z,99641.81
2018-07-27T21:59:03.825Z,99639.69
2018-07-27T22:03:48.480Z,99629.26
2018-07-27T22:08:32.146Z,99622.30
2018-07-27T22:13:15.797Z,99625.90
2018-07-27T22:17:59.241Z,99624.41
2018-07-27T22:22:42.902Z,99620.59
2018-07-27T22:27:29.470Z,99615.11
2018-07-27T22:32:13.034Z,99616.02
2018-07-27T22:36:57.068Z,99610.89
2018-07-27T22:41:40.657Z,99613.76
2018-07-27T22:46:24.405Z,99607.14
2018-07-27T22:51:08.239Z,99608.54
2018-07-27T22:55:51.945Z,99602.64
2018-07-27T23:00:35.599Z,99596.73
2018-07-27T23:05:22.550Z,99596.84
2018-07-27T23:10:08.299Z,99589.87
2018-07-27T23:14:51.891Z,99586.30
2018-07-27T23:19:35.423Z,99583.05
2018-07-27T23:24:19.107Z,99585.03
2018-07-27T23:29:02.609Z,99584.64
2018-07-27T23:33:47.266Z,99589.81
2018-07-27T23:38:30.881Z,99589.27
2018-07-27T23:43:14.564Z,99589.52
2018-07-27T23:47:58.193Z,99591.21
2018-07-27T23:52:41.827Z,99589.08
2018-07-27T23:57:28.668Z,99587.88
